sensor_id;sensor_type;location;lat;lon;timestamp;P1;durP1;ratioP1;P2;durP2;ratioP2
33876;SDS011;20166;51.738;7.158;2024-01-10T00:00:07;2.13;;;2.00;;
33876;SDS011;20166;51.738;7.158;2024-01-10T00:02:54;2.57;;;2.43;;
33876;SDS011;20166;51.738;7.158;2024-01-10T00:05:41;2.10;;;2.00;;
33876;SDS011;20166;51.738;7.158;2024-01-10T00:08:27;2.47;;;1.97;;
33876;SDS011;20166;51.738;7.158;2024-01-10T00:11:13;1.50;;;1.40;;
33876;SDS011;20166;51.738;7.158;2024-01-10T00:14:01;2.00;;;1.30;;
33876;SDS011;20166;51.738;7.158;2024-01-10T00:16:48;2.87;;;2.60;;
33876;SDS011;20166;51.738;7.158;2024-01-10T00:19:34;1.50;;;1.40;;
33876;SDS011;20166;51.738;7.158;2024-01-10T00:22:21;2.47;;;1.73;;
33876;SDS011;20166;51.738;7.158;2024-01-10T00:25:07;2.47;;;2.03;;
33876;SDS011;20166;51.738;7.158;2024-01-10T00:27:53;1.77;;;1.67;;
33876;SDS011;20166;51.738;7.158;2024-01-10T00:30:41;1.93;;;1.80;;
33876;SDS011;20166;51.738;7.158;2024-01-10T00:33:28;1.40;;;1.30;;
33876;SDS011;20166;51.738;7.158;2024-01-10T00:36:14;2.47;;;2.20;;
33876;SDS011;20166;51.738;7.158;2024-01-10T00:39:00;1.70;;;1.60;;
33876;SDS011;20166;51.738;7.158;2024-01-10T00:41:47;2.27;;;2.17;;
33876;SDS011;20166;51.738;7.158;2024-01-10T00:44:33;4.77;;;2.47;;
33876;SDS011;20166;51.738;7.158;2024-01-10T00:47:21;2.40;;;2.20;;
33876;SDS011;20166;51.738;7.158;2024-01-10T00:50:08;1.30;;;1.30;;
33876;SDS011;20166;51.738;7.158;2024-01-10T00:52:55;2.13;;;1.97;;
33876;SDS011;20166;51.738;7.158;2024-01-10T00:55:41;1.90;;;1.80;;
33876;SDS011;20166;51.738;7.158;2024-01-10T00:58:27;1.20;;;1.20;;
33876;SDS011;20166;51.738;7.158;2024-01-10T01:01:13;1.40;;;1.40;;
33876;SDS011;20166;51.738;7.158;2024-01-10T01:04:01;2.67;;;1.97;;
33876;SDS011;20166;51.738;7.158;2024-01-10T01:06:47;3.80;;;2.13;;
33876;SDS011;20166;51.738;7.158;2024-01-10T01:09:33;1.83;;;1.73;;
33876;SDS011;20166;51.738;7.158;2024-01-10T01:12:19;2.97;;;2.30;;
33876;SDS011;20166;51.738;7.158;2024-01-10T01:15:06;2.37;;;1.97;;
33876;SDS011;20166;51.738;7.158;2024-01-10T01:17:53;1.17;;;1.13;;
33876;SDS011;20166;51.738;7.158;2024-01-10T01:20:40;1.70;;;1.63;;
33876;SDS011;20166;51.738;7.158;2024-01-10T01:23:27;2.77;;;1.43;;
33876;SDS011;20166;51.738;7.158;2024-01-10T01:26:25;1.57;;;1.27;;
33876;SDS011;20166;51.738;7.158;2024-01-10T01:29:11;1.73;;;1.63;;
33876;SDS011;20166;51.738;7.158;2024-01-10T01:31:58;1.50;;;1.37;;
33876;SDS011;20166;51.738;7.158;2024-01-10T01:34:44;3.53;;;1.40;;
33876;SDS011;20166;51.738;7.158;2024-01-10T01:37:32;1.93;;;1.80;;
33876;SDS011;20166;51.738;7.158;2024-01-10T01:40:19;1.57;;;1.43;;
33876;SDS011;20166;51.738;7.158;2024-01-10T01:43:17;1.50;;;1.50;;
33876;SDS011;20166;51.738;7.158;2024-01-10T01:46:04;3.43;;;1.63;;
33876;SDS011;20166;51.738;7.158;2024-01-10T01:48:50;1.93;;;1.70;;
33876;SDS011;20166;51.738;7.158;2024-01-10T01:51:38;4.50;;;1.83;;
33876;SDS011;20166;51.738;7.158;2024-01-10T01:54:26;2.27;;;2.10;;
33876;SDS011;20166;51.738;7.158;2024-01-10T01:57:13;1.47;;;1.37;;
33876;SDS011;20166;51.738;7.158;2024-01-10T01:59:59;1.27;;;1.27;;
33876;SDS011;20166;51.738;7.158;2024-01-10T02:02:46;4.83;;;1.93;;
33876;SDS011;20166;51.738;7.158;2024-01-10T02:05:34;1.13;;;1.13;;
33876;SDS011;20166;51.738;7.158;2024-01-10T02:08:21;2.10;;;1.90;;
33876;SDS011;20166;51.738;7.158;2024-01-10T02:11:09;2.07;;;1.93;;
33876;SDS011;20166;51.738;7.158;2024-01-10T02:13:55;2.10;;;2.00;;
33876;SDS011;20166;51.738;7.158;2024-01-10T02:16:41;1.93;;;1.60;;
33876;SDS011;20166;51.738;7.158;2024-01-10T02:19:28;2.07;;;1.97;;
33876;SDS011;20166;51.738;7.158;2024-01-10T02:22:16;1.00;;;1.00;;
33876;SDS011;20166;51.738;7.158;2024-01-10T02:25:04;2.27;;;2.17;;
33876;SDS011;20166;51.738;7.158;2024-01-10T02:27:51;1.67;;;1.57;;
33876;SDS011;20166;51.738;7.158;2024-01-10T02:30:37;1.80;;;1.47;;
33876;SDS011;20166;51.738;7.158;2024-01-10T02:33:23;1.63;;;1.53;;
33876;SDS011;20166;51.738;7.158;2024-01-10T02:36:10;1.60;;;1.50;;
33876;SDS011;20166;51.738;7.158;2024-01-10T02:38:56;2.83;;;2.47;;
33876;SDS011;20166;51.738;7.158;2024-01-10T02:41:44;1.30;;;1.30;;
33876;SDS011;20166;51.738;7.158;2024-01-10T02:44:30;2.67;;;2.07;;
33876;SDS011;20166;51.738;7.158;2024-01-10T02:47:16;2.33;;;2.13;;
33876;SDS011;20166;51.738;7.158;2024-01-10T02:50:03;4.57;;;1.93;;
33876;SDS011;20166;51.738;7.158;2024-01-10T02:52:50;5.77;;;2.67;;
33876;SDS011;20166;51.738;7.158;2024-01-10T02:55:36;3.03;;;1.30;;
33876;SDS011;20166;51.738;7.158;2024-01-10T02:58:24;2.83;;;1.93;;
33876;SDS011;20166;51.738;7.158;2024-01-10T03:01:11;1.53;;;1.43;;
33876;SDS011;20166;51.738;7.158;2024-01-10T03:03:59;3.00;;;2.10;;
33876;SDS011;20166;51.738;7.158;2024-01-10T03:06:46;3.93;;;2.60;;
33876;SDS011;20166;51.738;7.158;2024-01-10T03:09:32;2.80;;;1.87;;
33876;SDS011;20166;51.738;7.158;2024-01-10T03:12:18;4.77;;;2.13;;
33876;SDS011;20166;51.738;7.158;2024-01-10T03:15:06;1.33;;;1.30;;
33876;SDS011;20166;51.738;7.158;2024-01-10T03:17:53;3.83;;;2.03;;
33876;SDS011;20166;51.738;7.158;2024-01-10T03:20:39;2.90;;;1.47;;
33876;SDS011;20166;51.738;7.158;2024-01-10T03:23:26;2.20;;;2.10;;
33876;SDS011;20166;51.738;7.158;2024-01-10T03:26:12;1.80;;;1.67;;
33876;SDS011;20166;51.738;7.158;2024-01-10T03:28:59;1.67;;;1.53;;
33876;SDS011;20166;51.738;7.158;2024-01-10T03:31:47;2.47;;;2.27;;
33876;SDS011;20166;51.738;7.158;2024-01-10T03:34:34;1.87;;;1.77;;
33876;SDS011;20166;51.738;7.158;2024-01-10T03:37:22;1.67;;;1.30;;
33876;SDS011;20166;51.738;7.158;2024-01-10T03:40:09;5.03;;;1.77;;
33876;SDS011;20166;51.738;7.158;2024-01-10T03:42:57;1.50;;;1.50;;
33876;SDS011;20166;51.738;7.158;2024-01-10T03:45:44;4.27;;;2.07;;
33876;SDS011;20166;51.738;7.158;2024-01-10T03:48:31;1.87;;;1.70;;
33876;SDS011;20166;51.738;7.158;2024-01-10T03:51:18;2.47;;;2.37;;
33876;SDS011;20166;51.738;7.158;2024-01-10T03:54:04;2.50;;;2.07;;
33876;SDS011;20166;51.738;7.158;2024-01-10T03:56:51;1.93;;;1.73;;
33876;SDS011;20166;51.738;7.158;2024-01-10T03:59:37;2.87;;;1.30;;
33876;SDS011;20166;51.738;7.158;2024-01-10T04:02:23;2.17;;;2.07;;
33876;SDS011;20166;51.738;7.158;2024-01-10T04:05:11;2.37;;;1.77;;
33876;SDS011;20166;51.738;7.158;2024-01-10T04:07:58;2.00;;;1.90;;
33876;SDS011;20166;51.738;7.158;2024-01-10T04:10:45;2.10;;;2.00;;
33876;SDS011;20166;51.738;7.158;2024-01-10T04:13:31;2.17;;;2.07;;
33876;SDS011;20166;51.738;7.158;2024-01-10T04:16:17;4.77;;;2.30;;
33876;SDS011;20166;51.738;7.158;2024-01-10T04:19:03;2.30;;;2.13;;
33876;SDS011;20166;51.738;7.158;2024-01-10T04:21:51;2.17;;;2.00;;
33876;SDS011;20166;51.738;7.158;2024-01-10T04:24:37;2.03;;;1.90;;
33876;SDS011;20166;51.738;7.158;2024-01-10T04:27:23;4.07;;;2.10;;
33876;SDS011;20166;51.738;7.158;2024-01-10T04:30:10;1.10;;;1.10;;
33876;SDS011;20166;51.738;7.158;2024-01-10T04:32:58;2.10;;;1.90;;
33876;SDS011;20166;51.738;7.158;2024-01-10T04:35:44;2.40;;;2.20;;
33876;SDS011;20166;51.738;7.158;2024-01-10T04:38:32;2.93;;;1.87;;
33876;SDS011;20166;51.738;7.158;2024-01-10T04:41:18;2.93;;;2.00;;
33876;SDS011;20166;51.738;7.158;2024-01-10T04:44:05;0.93;;;0.93;;
33876;SDS011;20166;51.738;7.158;2024-01-10T04:46:51;4.97;;;2.73;;
33876;SDS011;20166;51.738;7.158;2024-01-10T04:49:38;3.43;;;2.20;;
33876;SDS011;20166;51.738;7.158;2024-01-10T04:52:24;3.10;;;2.03;;
33876;SDS011;20166;51.738;7.158;2024-01-10T04:55:12;2.20;;;2.10;;
33876;SDS011;20166;51.738;7.158;2024-01-10T04:57:58;1.73;;;1.63;;
33876;SDS011;20166;51.738;7.158;2024-01-10T05:00:44;1.30;;;1.30;;
33876;SDS011;20166;51.738;7.158;2024-01-10T05:03:31;2.43;;;2.23;;
33876;SDS011;20166;51.738;7.158;2024-01-10T05:06:17;2.93;;;2.67;;
33876;SDS011;20166;51.738;7.158;2024-01-10T05:09:03;2.23;;;1.87;;
33876;SDS011;20166;51.738;7.158;2024-01-10T05:11:52;1.90;;;1.80;;
33876;SDS011;20166;51.738;7.158;2024-01-10T05:14:39;4.57;;;3.00;;
33876;SDS011;20166;51.738;7.158;2024-01-10T05:17:25;1.10;;;1.10;;
33876;SDS011;20166;51.738;7.158;2024-01-10T05:20:12;1.60;;;1.60;;
33876;SDS011;20166;51.738;7.158;2024-01-10T05:22:59;1.70;;;1.60;;
33876;SDS011;20166;51.738;7.158;2024-01-10T05:25:46;2.17;;;2.07;;
33876;SDS011;20166;51.738;7.158;2024-01-10T05:28:34;1.27;;;1.27;;
33876;SDS011;20166;51.738;7.158;2024-01-10T05:31:21;1.40;;;1.30;;
33876;SDS011;20166;51.738;7.158;2024-01-10T05:34:07;2.97;;;1.73;;
33876;SDS011;20166;51.738;7.158;2024-01-10T05:36:54;3.33;;;1.70;;
33876;SDS011;20166;51.738;7.158;2024-01-10T05:39:40;2.53;;;2.33;;
33876;SDS011;20166;51.738;7.158;2024-01-10T05:42:27;3.70;;;2.17;;
33876;SDS011;20166;51.738;7.158;2024-01-10T05:45:14;1.67;;;1.57;;
33876;SDS011;20166;51.738;7.158;2024-01-10T05:48:03;2.00;;;1.90;;
33876;SDS011;20166;51.738;7.158;2024-01-10T05:50:52;1.23;;;1.23;;
33876;SDS011;20166;51.738;7.158;2024-01-10T05:53:39;3.03;;;2.57;;
33876;SDS011;20166;51.738;7.158;2024-01-10T05:56:25;2.83;;;1.63;;
33876;SDS011;20166;51.738;7.158;2024-01-10T05:59:13;2.57;;;1.80;;
33876;SDS011;20166;51.738;7.158;2024-01-10T06:02:03;2.10;;;1.67;;
33876;SDS011;20166;51.738;7.158;2024-01-10T06:04:49;1.90;;;1.80;;
33876;SDS011;20166;51.738;7.158;2024-01-10T06:07:36;2.67;;;2.13;;
33876;SDS011;20166;51.738;7.158;2024-01-10T06:10:22;3.53;;;2.73;;
33876;SDS011;20166;51.738;7.158;2024-01-10T06:13:09;1.10;;;1.10;;
33876;SDS011;20166;51.738;7.158;2024-01-10T06:15:55;3.07;;;2.87;;
33876;SDS011;20166;51.738;7.158;2024-01-10T06:18:43;3.33;;;2.23;;
33876;SDS011;20166;51.738;7.158;2024-01-10T06:21:29;1.57;;;1.53;;
33876;SDS011;20166;51.738;7.158;2024-01-10T06:24:16;2.83;;;2.07;;
33876;SDS011;20166;51.738;7.158;2024-01-10T06:27:02;2.83;;;2.20;;
33876;SDS011;20166;51.738;7.158;2024-01-10T06:29:48;2.17;;;2.07;;
33876;SDS011;20166;51.738;7.158;2024-01-10T06:32:35;1.57;;;1.57;;
33876;SDS011;20166;51.738;7.158;2024-01-10T06:35:23;1.60;;;1.57;;
33876;SDS011;20166;51.738;7.158;2024-01-10T06:38:09;2.40;;;2.30;;
33876;SDS011;20166;51.738;7.158;2024-01-10T06:40:56;1.67;;;1.43;;
33876;SDS011;20166;51.738;7.158;2024-01-10T06:43:42;3.17;;;2.63;;
33876;SDS011;20166;51.738;7.158;2024-01-10T06:46:29;2.87;;;2.67;;
33876;SDS011;20166;51.738;7.158;2024-01-10T06:49:16;3.03;;;2.03;;
33876;SDS011;20166;51.738;7.158;2024-01-10T06:52:04;5.43;;;2.43;;
33876;SDS011;20166;51.738;7.158;2024-01-10T06:54:52;2.47;;;2.23;;
33876;SDS011;20166;51.738;7.158;2024-01-10T06:57:38;14.63;;;2.50;;
33876;SDS011;20166;51.738;7.158;2024-01-10T07:00:25;1.67;;;1.57;;
33876;SDS011;20166;51.738;7.158;2024-01-10T07:03:11;3.67;;;2.37;;
33876;SDS011;20166;51.738;7.158;2024-01-10T07:05:58;3.17;;;2.53;;
33876;SDS011;20166;51.738;7.158;2024-01-10T07:08:47;3.37;;;2.00;;
33876;SDS011;20166;51.738;7.158;2024-01-10T07:11:34;2.23;;;1.83;;
33876;SDS011;20166;51.738;7.158;2024-01-10T07:14:20;2.07;;;1.87;;
33876;SDS011;20166;51.738;7.158;2024-01-10T07:17:07;2.63;;;2.43;;
33876;SDS011;20166;51.738;7.158;2024-01-10T07:19:53;1.37;;;1.33;;
33876;SDS011;20166;51.738;7.158;2024-01-10T07:22:41;2.60;;;1.77;;
33876;SDS011;20166;51.738;7.158;2024-01-10T07:25:30;1.97;;;1.87;;
33876;SDS011;20166;51.738;7.158;2024-01-10T07:28:17;4.57;;;2.70;;
33876;SDS011;20166;51.738;7.158;2024-01-10T07:31:04;2.80;;;2.53;;
33876;SDS011;20166;51.738;7.158;2024-01-10T07:33:50;2.33;;;1.73;;
33876;SDS011;20166;51.738;7.158;2024-01-10T07:36:41;3.33;;;2.80;;
33876;SDS011;20166;51.738;7.158;2024-01-10T07:39:28;4.20;;;2.30;;
33876;SDS011;20166;51.738;7.158;2024-01-10T07:42:16;2.20;;;2.00;;
33876;SDS011;20166;51.738;7.158;2024-01-10T07:45:03;2.43;;;1.80;;
33876;SDS011;20166;51.738;7.158;2024-01-10T07:47:50;2.40;;;2.20;;
33876;SDS011;20166;51.738;7.158;2024-01-10T07:50:36;2.40;;;2.20;;
33876;SDS011;20166;51.738;7.158;2024-01-10T07:53:23;3.40;;;2.50;;
33876;SDS011;20166;51.738;7.158;2024-01-10T07:56:11;1.80;;;1.73;;
33876;SDS011;20166;51.738;7.158;2024-01-10T07:59:01;3.17;;;2.00;;
33876;SDS011;20166;51.738;7.158;2024-01-10T08:01:54;4.20;;;2.83;;
33876;SDS011;20166;51.738;7.158;2024-01-10T08:04:43;2.13;;;1.90;;
33876;SDS011;20166;51.738;7.158;2024-01-10T08:07:29;2.10;;;1.90;;
33876;SDS011;20166;51.738;7.158;2024-01-10T08:10:17;2.33;;;2.17;;
33876;SDS011;20166;51.738;7.158;2024-01-10T08:13:03;8.80;;;3.30;;
33876;SDS011;20166;51.738;7.158;2024-01-10T08:15:51;4.13;;;2.67;;
33876;SDS011;20166;51.738;7.158;2024-01-10T08:18:39;3.10;;;2.77;;
33876;SDS011;20166;51.738;7.158;2024-01-10T08:21:25;3.17;;;2.47;;
33876;SDS011;20166;51.738;7.158;2024-01-10T08:24:12;3.43;;;2.53;;
33876;SDS011;20166;51.738;7.158;2024-01-10T08:26:58;1.93;;;1.83;;
33876;SDS011;20166;51.738;7.158;2024-01-10T08:29:45;12.33;;;2.63;;
33876;SDS011;20166;51.738;7.158;2024-01-10T08:32:32;3.97;;;3.20;;
33876;SDS011;20166;51.738;7.158;2024-01-10T08:35:20;3.07;;;2.83;;
33876;SDS011;20166;51.738;7.158;2024-01-10T08:38:11;4.10;;;2.50;;
33876;SDS011;20166;51.738;7.158;2024-01-10T08:40:57;7.17;;;3.47;;
33876;SDS011;20166;51.738;7.158;2024-01-10T08:43:44;3.23;;;2.37;;
33876;SDS011;20166;51.738;7.158;2024-01-10T08:46:30;3.53;;;3.00;;
33876;SDS011;20166;51.738;7.158;2024-01-10T08:49:18;6.70;;;2.00;;
33876;SDS011;20166;51.738;7.158;2024-01-10T08:52:04;4.33;;;2.73;;
33876;SDS011;20166;51.738;7.158;2024-01-10T08:54:51;2.53;;;2.33;;
33876;SDS011;20166;51.738;7.158;2024-01-10T08:57:37;2.20;;;2.10;;
33876;SDS011;20166;51.738;7.158;2024-01-10T09:00:23;4.70;;;3.33;;
33876;SDS011;20166;51.738;7.158;2024-01-10T09:03:10;3.77;;;2.20;;
33876;SDS011;20166;51.738;7.158;2024-01-10T09:05:57;2.77;;;2.27;;
33876;SDS011;20166;51.738;7.158;2024-01-10T09:08:54;4.97;;;3.37;;
33876;SDS011;20166;51.738;7.158;2024-01-10T09:11:41;3.03;;;2.83;;
33876;SDS011;20166;51.738;7.158;2024-01-10T09:14:30;4.03;;;3.40;;
33876;SDS011;20166;51.738;7.158;2024-01-10T09:17:16;4.10;;;2.57;;
33876;SDS011;20166;51.738;7.158;2024-01-10T09:20:03;4.00;;;2.17;;
33876;SDS011;20166;51.738;7.158;2024-01-10T09:22:51;5.37;;;3.13;;
33876;SDS011;20166;51.738;7.158;2024-01-10T09:25:37;4.00;;;3.10;;
33876;SDS011;20166;51.738;7.158;2024-01-10T09:28:23;4.03;;;3.53;;
33876;SDS011;20166;51.738;7.158;2024-01-10T09:31:10;2.50;;;2.30;;
33876;SDS011;20166;51.738;7.158;2024-01-10T09:33:57;4.77;;;4.10;;
33876;SDS011;20166;51.738;7.158;2024-01-10T09:36:44;5.70;;;2.97;;
33876;SDS011;20166;51.738;7.158;2024-01-10T09:39:31;5.37;;;2.43;;
33876;SDS011;20166;51.738;7.158;2024-01-10T09:42:18;2.60;;;2.40;;
33876;SDS011;20166;51.738;7.158;2024-01-10T09:45:06;4.37;;;2.93;;
33876;SDS011;20166;51.738;7.158;2024-01-10T09:47:54;2.30;;;1.87;;
33876;SDS011;20166;51.738;7.158;2024-01-10T09:50:42;4.07;;;2.43;;
33876;SDS011;20166;51.738;7.158;2024-01-10T09:53:29;7.03;;;2.93;;
33876;SDS011;20166;51.738;7.158;2024-01-10T09:56:23;5.93;;;3.33;;
33876;SDS011;20166;51.738;7.158;2024-01-10T09:59:09;3.30;;;2.43;;
33876;SDS011;20166;51.738;7.158;2024-01-10T10:01:57;8.43;;;3.17;;
33876;SDS011;20166;51.738;7.158;2024-01-10T10:04:45;4.27;;;2.97;;
33876;SDS011;20166;51.738;7.158;2024-01-10T10:07:46;7.33;;;3.47;;
33876;SDS011;20166;51.738;7.158;2024-01-10T10:10:33;9.10;;;3.73;;
33876;SDS011;20166;51.738;7.158;2024-01-10T10:13:28;5.47;;;2.73;;
33876;SDS011;20166;51.738;7.158;2024-01-10T10:16:15;6.10;;;3.50;;
33876;SDS011;20166;51.738;7.158;2024-01-10T10:19:09;3.73;;;2.90;;
33876;SDS011;20166;51.738;7.158;2024-01-10T10:22:00;4.73;;;3.17;;
33876;SDS011;20166;51.738;7.158;2024-01-10T10:24:54;7.43;;;3.00;;
33876;SDS011;20166;51.738;7.158;2024-01-10T10:27:40;4.97;;;3.83;;
33876;SDS011;20166;51.738;7.158;2024-01-10T10:30:28;3.60;;;2.77;;
33876;SDS011;20166;51.738;7.158;2024-01-10T10:33:15;4.60;;;3.07;;
33876;SDS011;20166;51.738;7.158;2024-01-10T10:36:04;3.07;;;2.63;;
33876;SDS011;20166;51.738;7.158;2024-01-10T10:38:51;5.33;;;3.13;;
33876;SDS011;20166;51.738;7.158;2024-01-10T10:41:38;9.03;;;3.40;;
33876;SDS011;20166;51.738;7.158;2024-01-10T10:44:25;3.37;;;2.33;;
33876;SDS011;20166;51.738;7.158;2024-01-10T10:47:19;11.33;;;2.67;;
33876;SDS011;20166;51.738;7.158;2024-01-10T10:50:09;8.27;;;3.33;;
33876;SDS011;20166;51.738;7.158;2024-01-10T10:53:00;8.60;;;3.87;;
33876;SDS011;20166;51.738;7.158;2024-01-10T10:55:49;6.87;;;3.37;;
33876;SDS011;20166;51.738;7.158;2024-01-10T10:58:37;7.67;;;4.33;;
33876;SDS011;20166;51.738;7.158;2024-01-10T11:01:25;5.87;;;3.67;;
33876;SDS011;20166;51.738;7.158;2024-01-10T11:04:14;4.33;;;3.07;;
33876;SDS011;20166;51.738;7.158;2024-01-10T11:07:01;5.93;;;3.23;;
33876;SDS011;20166;51.738;7.158;2024-01-10T11:09:47;4.50;;;3.90;;
33876;SDS011;20166;51.738;7.158;2024-01-10T11:12:43;5.00;;;2.97;;
33876;SDS011;20166;51.738;7.158;2024-01-10T11:15:52;7.47;;;4.30;;
33876;SDS011;20166;51.738;7.158;2024-01-10T11:18:57;8.23;;;3.47;;
33876;SDS011;20166;51.738;7.158;2024-01-10T11:22:00;8.23;;;3.90;;
33876;SDS011;20166;51.738;7.158;2024-01-10T11:24:55;5.37;;;4.03;;
33876;SDS011;20166;51.738;7.158;2024-01-10T11:27:46;7.27;;;3.70;;
33876;SDS011;20166;51.738;7.158;2024-01-10T11:30:48;7.40;;;3.70;;
33876;SDS011;20166;51.738;7.158;2024-01-10T11:33:37;8.20;;;4.37;;
33876;SDS011;20166;51.738;7.158;2024-01-10T11:36:27;6.97;;;3.83;;
33876;SDS011;20166;51.738;7.158;2024-01-10T11:39:15;6.37;;;4.90;;
33876;SDS011;20166;51.738;7.158;2024-01-10T11:42:02;8.47;;;3.70;;
33876;SDS011;20166;51.738;7.158;2024-01-10T11:44:48;5.33;;;3.77;;
33876;SDS011;20166;51.738;7.158;2024-01-10T11:47:37;6.63;;;4.77;;
33876;SDS011;20166;51.738;7.158;2024-01-10T11:50:24;5.37;;;3.80;;
33876;SDS011;20166;51.738;7.158;2024-01-10T11:53:11;6.00;;;4.33;;
33876;SDS011;20166;51.738;7.158;2024-01-10T11:55:59;10.77;;;4.43;;
33876;SDS011;20166;51.738;7.158;2024-01-10T11:59:00;10.60;;;4.73;;
33876;SDS011;20166;51.738;7.158;2024-01-10T12:01:48;6.97;;;4.43;;
33876;SDS011;20166;51.738;7.158;2024-01-10T12:04:35;9.63;;;4.70;;
33876;SDS011;20166;51.738;7.158;2024-01-10T12:07:31;7.33;;;3.37;;
33876;SDS011;20166;51.738;7.158;2024-01-10T12:10:17;5.80;;;3.67;;
33876;SDS011;20166;51.738;7.158;2024-01-10T12:13:04;7.57;;;4.00;;
33876;SDS011;20166;51.738;7.158;2024-01-10T12:15:51;8.17;;;4.63;;
33876;SDS011;20166;51.738;7.158;2024-01-10T12:18:37;9.37;;;4.53;;
33876;SDS011;20166;51.738;7.158;2024-01-10T12:21:23;8.50;;;4.27;;
33876;SDS011;20166;51.738;7.158;2024-01-10T12:24:10;5.67;;;4.70;;
33876;SDS011;20166;51.738;7.158;2024-01-10T12:26:56;7.97;;;4.63;;
33876;SDS011;20166;51.738;7.158;2024-01-10T12:29:44;8.00;;;4.80;;
33876;SDS011;20166;51.738;7.158;2024-01-10T12:32:33;8.70;;;5.33;;
33876;SDS011;20166;51.738;7.158;2024-01-10T12:35:20;5.90;;;4.73;;
33876;SDS011;20166;51.738;7.158;2024-01-10T12:38:07;8.40;;;4.77;;
33876;SDS011;20166;51.738;7.158;2024-01-10T12:40:53;9.37;;;4.53;;
33876;SDS011;20166;51.738;7.158;2024-01-10T12:43:39;8.13;;;4.33;;
33876;SDS011;20166;51.738;7.158;2024-01-10T12:46:27;7.23;;;3.97;;
33876;SDS011;20166;51.738;7.158;2024-01-10T12:49:14;14.20;;;3.83;;
33876;SDS011;20166;51.738;7.158;2024-01-10T12:52:00;7.03;;;3.97;;
33876;SDS011;20166;51.738;7.158;2024-01-10T12:54:53;8.30;;;4.97;;
33876;SDS011;20166;51.738;7.158;2024-01-10T12:57:39;9.27;;;4.77;;
33876;SDS011;20166;51.738;7.158;2024-01-10T13:00:26;6.50;;;4.10;;
33876;SDS011;20166;51.738;7.158;2024-01-10T13:03:15;8.67;;;5.40;;
33876;SDS011;20166;51.738;7.158;2024-01-10T13:06:02;13.67;;;5.97;;
33876;SDS011;20166;51.738;7.158;2024-01-10T13:08:48;10.00;;;4.73;;
33876;SDS011;20166;51.738;7.158;2024-01-10T13:11:35;6.93;;;4.27;;
33876;SDS011;20166;51.738;7.158;2024-01-10T13:14:21;11.00;;;4.27;;
33876;SDS011;20166;51.738;7.158;2024-01-10T13:17:07;6.60;;;4.03;;
33876;SDS011;20166;51.738;7.158;2024-01-10T13:19:55;16.27;;;4.87;;
33876;SDS011;20166;51.738;7.158;2024-01-10T13:22:43;6.13;;;4.23;;
33876;SDS011;20166;51.738;7.158;2024-01-10T13:25:31;6.40;;;3.00;;
33876;SDS011;20166;51.738;7.158;2024-01-10T13:28:17;5.67;;;4.00;;
33876;SDS011;20166;51.738;7.158;2024-01-10T13:31:04;5.50;;;3.73;;
33876;SDS011;20166;51.738;7.158;2024-01-10T13:33:50;12.30;;;4.43;;
33876;SDS011;20166;51.738;7.158;2024-01-10T13:36:41;9.43;;;4.03;;
33876;SDS011;20166;51.738;7.158;2024-01-10T13:39:27;5.23;;;4.17;;
33876;SDS011;20166;51.738;7.158;2024-01-10T13:42:13;5.83;;;4.43;;
33876;SDS011;20166;51.738;7.158;2024-01-10T13:45:00;9.57;;;3.70;;
33876;SDS011;20166;51.738;7.158;2024-01-10T13:47:47;5.07;;;3.33;;
33876;SDS011;20166;51.738;7.158;2024-01-10T13:50:34;4.63;;;4.10;;
33876;SDS011;20166;51.738;7.158;2024-01-10T13:53:22;6.13;;;3.90;;
33876;SDS011;20166;51.738;7.158;2024-01-10T13:56:08;7.63;;;4.87;;
33876;SDS011;20166;51.738;7.158;2024-01-10T13:58:54;6.23;;;4.13;;
33876;SDS011;20166;51.738;7.158;2024-01-10T14:01:42;6.07;;;4.23;;
33876;SDS011;20166;51.738;7.158;2024-01-10T14:04:28;6.97;;;4.47;;
33876;SDS011;20166;51.738;7.158;2024-01-10T14:07:14;4.07;;;3.27;;
33876;SDS011;20166;51.738;7.158;2024-01-10T14:10:02;8.27;;;4.63;;
33876;SDS011;20166;51.738;7.158;2024-01-10T14:12:50;8.37;;;4.30;;
33876;SDS011;20166;51.738;7.158;2024-01-10T14:15:37;8.83;;;4.57;;
33876;SDS011;20166;51.738;7.158;2024-01-10T14:18:23;8.27;;;4.37;;
33876;SDS011;20166;51.738;7.158;2024-01-10T14:21:09;5.37;;;4.87;;
33876;SDS011;20166;51.738;7.158;2024-01-10T14:23:55;8.53;;;4.40;;
33876;SDS011;20166;51.738;7.158;2024-01-10T14:26:44;8.00;;;4.53;;
33876;SDS011;20166;51.738;7.158;2024-01-10T14:29:30;7.43;;;3.93;;
33876;SDS011;20166;51.738;7.158;2024-01-10T14:32:16;9.47;;;4.90;;
33876;SDS011;20166;51.738;7.158;2024-01-10T14:35:03;5.53;;;4.13;;
33876;SDS011;20166;51.738;7.158;2024-01-10T14:37:51;9.70;;;5.27;;
33876;SDS011;20166;51.738;7.158;2024-01-10T14:40:37;8.80;;;5.07;;
33876;SDS011;20166;51.738;7.158;2024-01-10T14:43:25;10.10;;;4.50;;
33876;SDS011;20166;51.738;7.158;2024-01-10T14:46:11;14.70;;;6.90;;
33876;SDS011;20166;51.738;7.158;2024-01-10T14:48:58;10.97;;;4.83;;
33876;SDS011;20166;51.738;7.158;2024-01-10T14:51:44;19.97;;;7.73;;
33876;SDS011;20166;51.738;7.158;2024-01-10T14:54:32;18.10;;;7.57;;
33876;SDS011;20166;51.738;7.158;2024-01-10T14:57:19;14.57;;;6.97;;
33876;SDS011;20166;51.738;7.158;2024-01-10T15:00:08;8.53;;;4.97;;
33876;SDS011;20166;51.738;7.158;2024-01-10T15:02:55;9.37;;;4.67;;
33876;SDS011;20166;51.738;7.158;2024-01-10T15:05:41;13.40;;;5.27;;
33876;SDS011;20166;51.738;7.158;2024-01-10T15:08:27;12.10;;;6.03;;
33876;SDS011;20166;51.738;7.158;2024-01-10T15:11:15;9.87;;;5.63;;
33876;SDS011;20166;51.738;7.158;2024-01-10T15:14:03;9.50;;;6.13;;
33876;SDS011;20166;51.738;7.158;2024-01-10T15:16:51;9.40;;;5.37;;
33876;SDS011;20166;51.738;7.158;2024-01-10T15:19:38;10.80;;;5.10;;
33876;SDS011;20166;51.738;7.158;2024-01-10T15:22:25;9.23;;;4.97;;
33876;SDS011;20166;51.738;7.158;2024-01-10T15:25:12;6.83;;;4.53;;
33876;SDS011;20166;51.738;7.158;2024-01-10T15:27:58;9.77;;;7.00;;
33876;SDS011;20166;51.738;7.158;2024-01-10T15:30:45;5.27;;;4.77;;
33876;SDS011;20166;51.738;7.158;2024-01-10T15:33:35;7.13;;;4.70;;
33876;SDS011;20166;51.738;7.158;2024-01-10T15:36:21;8.63;;;5.63;;
33876;SDS011;20166;51.738;7.158;2024-01-10T15:39:12;6.80;;;4.47;;
33876;SDS011;20166;51.738;7.158;2024-01-10T15:41:59;10.33;;;6.17;;
33876;SDS011;20166;51.738;7.158;2024-01-10T15:44:46;8.70;;;4.83;;
33876;SDS011;20166;51.738;7.158;2024-01-10T15:47:32;6.90;;;4.77;;
33876;SDS011;20166;51.738;7.158;2024-01-10T15:50:20;9.10;;;5.37;;
33876;SDS011;20166;51.738;7.158;2024-01-10T15:53:07;6.97;;;4.80;;
33876;SDS011;20166;51.738;7.158;2024-01-10T15:55:53;8.40;;;4.90;;
33876;SDS011;20166;51.738;7.158;2024-01-10T15:58:41;7.60;;;4.73;;
33876;SDS011;20166;51.738;7.158;2024-01-10T16:01:27;10.00;;;5.73;;
33876;SDS011;20166;51.738;7.158;2024-01-10T16:04:14;7.87;;;4.87;;
33876;SDS011;20166;51.738;7.158;2024-01-10T16:07:02;7.87;;;5.20;;
33876;SDS011;20166;51.738;7.158;2024-01-10T16:09:48;9.07;;;5.70;;
33876;SDS011;20166;51.738;7.158;2024-01-10T16:12:34;9.70;;;4.57;;
33876;SDS011;20166;51.738;7.158;2024-01-10T16:15:20;13.97;;;5.07;;
33876;SDS011;20166;51.738;7.158;2024-01-10T16:18:07;10.60;;;4.77;;
33876;SDS011;20166;51.738;7.158;2024-01-10T16:20:53;8.73;;;5.30;;
33876;SDS011;20166;51.738;7.158;2024-01-10T16:23:41;8.53;;;5.40;;
33876;SDS011;20166;51.738;7.158;2024-01-10T16:26:27;10.27;;;6.03;;
33876;SDS011;20166;51.738;7.158;2024-01-10T16:29:13;8.93;;;5.93;;
33876;SDS011;20166;51.738;7.158;2024-01-10T16:32:02;6.37;;;4.30;;
33876;SDS011;20166;51.738;7.158;2024-01-10T16:34:49;9.50;;;5.23;;
33876;SDS011;20166;51.738;7.158;2024-01-10T16:37:35;8.50;;;4.73;;
33876;SDS011;20166;51.738;7.158;2024-01-10T16:40:23;13.93;;;6.70;;
33876;SDS011;20166;51.738;7.158;2024-01-10T16:43:10;10.47;;;6.07;;
33876;SDS011;20166;51.738;7.158;2024-01-10T16:45:56;10.23;;;6.67;;